createdAt,value
2018-06-15T00:00:39.074Z,69.34
2018-06-15T00:03:08.122Z,68.63
2018-06-15T00:05:37.522Z,68.95
2018-06-15T00:08:06.885Z,67.99
2018-06-15T00:10:36.300Z,68.00
2018-06-15T00:13:05.683Z,67.97
2018-06-15T00:15:35.103Z,67.37
2018-06-15T00:18:04.486Z,66.76
2018-06-15T00:20:33.877Z,67.14
2018-06-15T00:23:03.221Z,67.58
2018-06-15T00:25:32.578Z,66.88
2018-06-15T00:28:01.987Z,66.32
2018-06-15T00:30:31.680Z,66.64
2018-06-15T00:33:01.076Z,66.53
2018-06-15T00:35:30.457Z,65.21
2018-06-15T00:37:59.815Z,65.52
2018-06-15T00:40:29.341Z,65.17
2018-06-15T00:42:58.709Z,65.90
2018-06-15T00:45:28.092Z,66.20
2018-06-15T00:47:57.391Z,66.02
2018-06-15T00:50:26.764Z,65.53
2018-06-15T00:52:56.186Z,65.17
2018-06-15T00:55:25.591Z,65.13
2018-06-15T00:57:55.009Z,64.93
2018-06-15T01:00:24.405Z,64.99
2018-06-15T01:02:53.950Z,64.92
2018-06-15T01:05:23.323Z,64.88
2018-06-15T01:07:52.702Z,65.07
2018-06-15T01:10:22.233Z,64.64
2018-06-15T01:12:51.748Z,64.87
2018-06-15T01:15:21.125Z,65.12
2018-06-15T01:17:50.499Z,64.26
2018-06-15T01:20:19.887Z,63.96
2018-06-15T01:22:49.241Z,65.08
2018-06-15T01:25:18.624Z,65.38
2018-06-15T01:27:48.001Z,66.09
2018-06-15T01:30:17.398Z,66.44
2018-06-15T01:32:46.738Z,65.82
2018-06-15T01:35:16.073Z,65.92
2018-06-15T01:37:45.432Z,65.46
2018-06-15T01:40:14.798Z,65.07
2018-06-15T01:42:44.318Z,65.04
2018-06-15T01:45:13.703Z,64.22
2018-06-15T01:47:43.012Z,65.10
2018-06-15T01:50:12.427Z,64.80
2018-06-15T01:52:41.928Z,65.16
2018-06-15T01:55:11.279Z,66.10
2018-06-15T01:57:40.764Z,67.34
2018-06-15T02:00:10.294Z,66.78
2018-06-15T02:02:39.613Z,67.06
2018-06-15T02:05:09.025Z,67.58
2018-06-15T02:07:38.397Z,65.83
2018-06-15T02:10:07.789Z,66.56
2018-06-15T02:12:37.773Z,67.14
2018-06-15T02:15:07.186Z,65.93
2018-06-15T02:17:36.471Z,66.50
2018-06-15T02:20:05.867Z,65.96
2018-06-15T02:22:35.314Z,65.53
2018-06-15T02:25:04.989Z,65.12
2018-06-15T02:27:34.502Z,65.52
2018-06-15T02:30:03.988Z,65.41
2018-06-15T02:32:33.593Z,65.28
2018-06-15T02:35:02.919Z,64.01
2018-06-15T02:37:32.279Z,64.48
2018-06-15T02:40:01.746Z,64.25
2018-06-15T02:42:31.117Z,64.38
2018-06-15T02:45:00.217Z,63.84
2018-06-15T02:47:29.531Z,64.60
2018-06-15T02:49:58.925Z,65.36
2018-06-15T02:52:28.229Z,65.92
2018-06-15T02:54:57.611Z,65.64
2018-06-15T02:57:27.839Z,66.79
2018-06-15T02:59:57.224Z,65.78
2018-06-15T03:02:26.575Z,65.76
2018-06-15T03:04:56.022Z,65.90
2018-06-15T03:07:25.424Z,66.45
2018-06-15T03:09:54.909Z,67.03
2018-06-15T03:12:24.266Z,67.21
2018-06-15T03:14:53.657Z,67.42
2018-06-15T03:17:23.093Z,67.43
2018-06-15T03:19:52.558Z,68.05
2018-06-15T03:22:21.950Z,68.27
2018-06-15T03:24:51.293Z,68.55
2018-06-15T03:27:20.638Z,68.31
2018-06-15T03:29:50.101Z,67.02
2018-06-15T03:32:19.529Z,67.03
2018-06-15T03:34:48.926Z,67.50
2018-06-15T03:37:18.342Z,67.82
2018-06-15T03:39:47.712Z,67.83
2018-06-15T03:42:17.308Z,67.89
2018-06-15T03:44:46.590Z,68.38
2018-06-15T03:47:15.924Z,68.80
2018-06-15T03:49:45.271Z,68.02
2018-06-15T03:52:14.698Z,67.87
2018-06-15T03:54:44.267Z,68.90
2018-06-15T03:57:13.677Z,68.21
2018-06-15T03:59:43.060Z,68.26
2018-06-15T04:02:12.425Z,68.39
2018-06-15T04:04:41.807Z,68.05
2018-06-15T04:07:10.889Z,68.27
2018-06-15T04:09:40.262Z,67.94
2018-06-15T04:12:09.571Z,67.48
2018-06-15T04:14:38.890Z,67.77
2018-06-15T04:17:08.494Z,67.29
2018-06-15T04:19:37.970Z,68.53
2018-06-15T04:22:07.310Z,67.85
2018-06-15T04:24:36.761Z,68.15
2018-06-15T04:27:06.343Z,68.38
2018-06-15T04:29:35.963Z,68.18
2018-06-15T04:32:05.345Z,69.03
2018-06-15T04:34:34.662Z,67.79
2018-06-15T04:37:04.035Z,67.40
2018-06-15T04:39:33.413Z,67.49
2018-06-15T04:42:02.862Z,67.87
2018-06-15T04:44:32.200Z,68.06
2018-06-15T04:47:01.569Z,68.62
2018-06-15T04:49:30.898Z,68.72
2018-06-15T04:52:00.522Z,68.44
2018-06-15T04:54:29.891Z,69.32
2018-06-15T04:56:59.323Z,67.97
2018-06-15T04:59:28.996Z,68.41
2018-06-15T05:01:58.362Z,67.95
2018-06-15T05:04:28.126Z,68.59
2018-06-15T05:06:57.901Z,68.03
2018-06-15T05:09:27.431Z,68.16
2018-06-15T05:11:56.887Z,68.49
2018-06-15T05:14:26.447Z,68.65
2018-06-15T05:16:55.802Z,68.99
2018-06-15T05:19:25.218Z,69.40
2018-06-15T05:21:54.685Z,69.23
2018-06-15T05:24:24.223Z,68.27
2018-06-15T05:26:54.187Z,67.30
2018-06-15T05:29:23.740Z,67.49
2018-06-15T05:31:53.399Z,67.32
2018-06-15T05:34:22.810Z,67.80
2018-06-15T05:36:53.288Z,67.58
2018-06-15T05:39:22.772Z,67.76
2018-06-15T05:41:52.897Z,68.68
2018-06-15T05:44:22.498Z,68.77
2018-06-15T05:46:51.965Z,68.94
2018-06-15T05:49:21.586Z,68.24
2018-06-15T05:51:51.014Z,68.25
2018-06-15T05:54:20.429Z,65.51
2018-06-15T05:56:50.305Z,65.04
2018-06-15T05:59:19.737Z,60.59
2018-06-15T06:01:49.168Z,58.83
2018-06-15T06:04:18.618Z,59.53
2018-06-15T06:06:47.982Z,59.44
2018-06-15T06:09:17.539Z,58.81
2018-06-15T06:11:46.906Z,59.46
2018-06-15T06:14:16.289Z,58.08
2018-06-15T06:16:45.679Z,58.68
2018-06-15T06:19:15.075Z,59.11
2018-06-15T06:21:44.462Z,58.81
2018-06-15T06:24:13.910Z,57.70
2018-06-15T06:26:43.438Z,56.77
2018-06-15T06:29:12.814Z,57.14
2018-06-15T06:31:42.198Z,57.43
2018-06-15T06:34:11.623Z,57.87
2018-06-15T06:36:41.057Z,56.62
2018-06-15T06:39:12.218Z,54.81
2018-06-15T06:41:41.698Z,55.91
2018-06-15T06:44:11.699Z,54.37
2018-06-15T06:46:41.099Z,54.67
2018-06-15T06:49:10.465Z,55.65
2018-06-15T06:51:39.806Z,56.24
2018-06-15T06:54:09.199Z,55.62
2018-06-15T06:56:38.568Z,54.88
2018-06-15T06:59:08.016Z,54.24
2018-06-15T07:01:37.472Z,54.72
2018-06-15T07:04:06.850Z,53.46
2018-06-15T07:06:36.188Z,55.04
2018-06-15T07:09:07.807Z,54.33
2018-06-15T07:11:37.757Z,52.98
2018-06-15T07:14:07.146Z,54.38
2018-06-15T07:16:36.651Z,54.36
2018-06-15T07:19:06.078Z,55.09
2018-06-15T07:21:35.522Z,56.87
2018-06-15T07:24:05.136Z,55.37
2018-06-15T07:26:34.462Z,51.19
2018-06-15T07:29:03.845Z,50.46
2018-06-15T07:31:33.241Z,52.56
2018-06-15T07:34:02.613Z,54.31
2018-06-15T07:36:32.059Z,52.45
2018-06-15T07:39:01.436Z,52.06
2018-06-15T07:41:30.851Z,54.08
2018-06-15T07:44:00.213Z,51.23
2018-06-15T07:46:29.572Z,52.67
2018-06-15T07:48:59.192Z,52.32
2018-06-15T07:51:28.542Z,53.54
2018-06-15T07:53:57.953Z,52.31
2018-06-15T07:56:27.437Z,50.27
2018-06-15T07:58:56.827Z,52.20
2018-06-15T08:01:26.184Z,50.53
2018-06-15T08:03:57.717Z,49.93
2018-06-15T08:06:27.101Z,51.39
2018-06-15T08:08:56.509Z,48.26
2018-06-15T08:11:25.922Z,48.97
2018-06-15T08:13:55.357Z,50.30
2018-06-15T08:16:24.954Z,49.63
2018-06-15T08:18:54.491Z,49.42
2018-06-15T08:21:24.024Z,49.42
2018-06-15T08:23:53.454Z,49.60
2018-06-15T08:26:22.948Z,48.97
2018-06-15T08:28:53.504Z,47.77
2018-06-15T08:31:23.093Z,49.66
2018-06-15T08:33:52.561Z,46.95
2018-06-15T08:36:22.804Z,46.45
2018-06-15T08:38:52.339Z,49.20
2018-06-15T08:41:21.932Z,46.94
2018-06-15T08:43:51.426Z,44.39
2018-06-15T08:46:20.967Z,45.90
2018-06-15T08:48:50.809Z,47.73
2018-06-15T08:51:20.246Z,46.18
2018-06-15T08:53:49.666Z,49.78
2018-06-15T08:56:19.039Z,45.36
2018-06-15T08:58:48.450Z,45.67
2018-06-15T09:01:17.922Z,48.09
2018-06-15T09:03:47.368Z,45.60
2018-06-15T09:06:16.704Z,46.13
2018-06-15T09:08:46.141Z,46.73
2018-06-15T09:11:15.605Z,46.27
2018-06-15T09:13:45.015Z,42.58
2018-06-15T09:16:14.350Z,45.01
2018-06-15T09:18:43.703Z,46.03
2018-06-15T09:21:13.049Z,46.64
2018-06-15T09:23:42.394Z,46.41
2018-06-15T09:26:11.711Z,44.58
2018-06-15T09:28:41.075Z,44.29
2018-06-15T09:31:10.422Z,41.43
2018-06-15T09:33:39.715Z,43.12
2018-06-15T09:36:09.102Z,46.35
2018-06-15T09:38:38.545Z,48.01
2018-06-15T09:41:07.906Z,44.92
2018-06-15T09:43:37.227Z,42.42
2018-06-15T09:46:06.658Z,42.41
2018-06-15T09:48:36.001Z,42.97
2018-06-15T09:51:05.391Z,45.66
2018-06-15T09:53:37.081Z,42.18
2018-06-15T09:56:06.848Z,43.96
2018-06-15T09:58:36.161Z,44.43
2018-06-15T10:01:07.708Z,47.43
2018-06-15T10:03:37.715Z,44.57
2018-06-15T10:06:07.139Z,43.70
2018-06-15T10:08:37.070Z,43.31
2018-06-15T10:11:06.749Z,43.43
2018-06-15T10:13:36.084Z,47.65
2018-06-15T10:16:05.457Z,47.72
2018-06-15T10:18:34.795Z,44.16
2018-06-15T10:21:03.836Z,43.78
2018-06-15T10:23:33.243Z,46.38
2018-06-15T10:26:02.622Z,46.33
2018-06-15T10:28:31.934Z,44.90
2018-06-15T10:31:01.246Z,44.46
2018-06-15T10:33:30.648Z,45.92
2018-06-15T10:36:00.062Z,43.71
2018-06-15T10:38:29.365Z,45.04
2018-06-15T10:40:59.057Z,43.81
2018-06-15T10:43:28.527Z,41.10
2018-06-15T10:45:57.908Z,41.11
2018-06-15T10:48:27.235Z,44.32
2018-06-15T10:50:56.598Z,43.72
2018-06-15T10:53:26.089Z,45.42
2018-06-15T10:55:55.562Z,41.32
2018-06-15T10:58:25.013Z,43.17
2018-06-15T11:00:54.789Z,44.33
2018-06-15T11:03:24.247Z,41.49
2018-06-15T11:05:54.173Z,43.61
2018-06-15T11:08:23.671Z,43.94
2018-06-15T11:10:53.430Z,42.81
2018-06-15T11:13:22.943Z,41.62
2018-06-15T11:15:52.416Z,41.99
2018-06-15T11:18:21.830Z,40.23
2018-06-15T11:20:51.336Z,44.22
2018-06-15T11:23:22.997Z,42.95
2018-06-15T11:25:53.266Z,45.02
2018-06-15T11:28:23.088Z,41.31
2018-06-15T11:30:52.574Z,39.90
2018-06-15T11:33:21.987Z,40.84
2018-06-15T11:35:51.410Z,40.08
2018-06-15T11:38:20.997Z,40.35
2018-06-15T11:40:50.403Z,42.93
2018-06-15T11:43:19.808Z,42.70
2018-06-15T11:45:49.178Z,42.60
2018-06-15T11:48:18.613Z,43.36
2018-06-15T11:50:47.967Z,41.49
2018-06-15T11:53:17.307Z,41.16
2018-06-15T11:55:46.673Z,41.59
2018-06-15T11:58:16.087Z,41.28
2018-06-15T12:00:45.425Z,41.30
2018-06-15T12:03:14.753Z,40.20
2018-06-15T12:05:44.095Z,39.44
2018-06-15T12:08:13.800Z,40.44
2018-06-15T12:10:43.122Z,41.14
2018-06-15T12:13:12.477Z,41.15
2018-06-15T12:15:42.920Z,41.93
2018-06-15T12:18:12.263Z,38.99
2018-06-15T12:20:41.633Z,40.36
2018-06-15T12:23:10.766Z,42.83
2018-06-15T12:25:40.143Z,39.37
2018-06-15T12:28:09.527Z,38.01
2018-06-15T12:30:38.928Z,42.00
2018-06-15T12:33:08.352Z,41.25
2018-06-15T12:35:37.789Z,40.98
2018-06-15T12:38:07.155Z,41.81
2018-06-15T12:40:36.546Z,43.81
2018-06-15T12:43:06.041Z,44.79
2018-06-15T12:45:35.637Z,42.00
2018-06-15T12:48:05.069Z,43.14
2018-06-15T12:50:34.386Z,43.14
2018-06-15T12:53:03.785Z,41.80
2018-06-15T12:55:33.097Z,42.47
2018-06-15T12:58:02.362Z,42.73
2018-06-15T13:00:31.732Z,42.67
2018-06-15T13:03:01.036Z,41.75
2018-06-15T13:05:30.398Z,37.81
2018-06-15T13:07:59.735Z,39.57
2018-06-15T13:10:29.066Z,40.24
2018-06-15T13:12:58.370Z,40.56
2018-06-15T13:15:27.820Z,40.59
2018-06-15T13:17:57.248Z,41.03
2018-06-15T13:20:26.529Z,43.37
2018-06-15T13:22:55.889Z,43.38
2018-06-15T13:25:25.310Z,42.23
2018-06-15T13:27:54.746Z,39.62
2018-06-15T13:30:24.238Z,38.04
2018-06-15T13:32:53.671Z,43.44
2018-06-15T13:35:23.241Z,41.08
2018-06-15T13:37:52.860Z,40.46
2018-06-15T13:40:22.380Z,42.69
2018-06-15T13:42:51.783Z,42.85
2018-06-15T13:45:21.195Z,40.66
2018-06-15T13:47:50.641Z,40.65
2018-06-15T13:50:20.025Z,42.90
2018-06-15T13:52:49.386Z,43.49
2018-06-15T13:55:18.824Z,40.97
2018-06-15T13:57:48.222Z,40.64
2018-06-15T14:00:18.007Z,40.20
2018-06-15T14:02:47.309Z,38.90
2018-06-15T14:05:16.748Z,40.46
2018-06-15T14:07:46.207Z,38.71
2018-06-15T14:10:15.562Z,42.03
2018-06-15T14:12:44.945Z,38.41
2018-06-15T14:15:14.326Z,43.78
2018-06-15T14:17:43.675Z,40.30
2018-06-15T14:20:13.345Z,40.81
2018-06-15T14:22:42.692Z,40.44
2018-06-15T14:25:12.081Z,39.68
2018-06-15T14:27:41.485Z,42.01
2018-06-15T14:30:10.797Z,39.88
2018-06-15T14:32:40.149Z,40.61
2018-06-15T14:35:09.582Z,41.66
2018-06-15T14:37:39.119Z,40.79
2018-06-15T14:40:08.610Z,43.04
2018-06-15T14:42:38.061Z,40.18
2018-06-15T14:45:07.634Z,39.70
2018-06-15T14:47:36.999Z,39.76
2018-06-15T14:50:06.410Z,39.74
2018-06-15T14:52:35.813Z,41.17
2018-06-15T14:55:05.321Z,42.47
2018-06-15T14:57:34.713Z,39.61
2018-06-15T15:00:04.087Z,40.72
2018-06-15T15:02:34.372Z,41.16
2018-06-15T15:05:03.790Z,40.61
2018-06-15T15:07:33.173Z,41.38
2018-06-15T15:10:02.618Z,39.44
2018-06-15T15:12:31.952Z,41.35
2018-06-15T15:15:01.398Z,40.11
2018-06-15T15:17:30.812Z,41.38
2018-06-15T15:20:00.155Z,41.08
2018-06-15T15:22:29.541Z,42.72
2018-06-15T15:24:59.066Z,42.39
2018-06-15T15:27:28.441Z,40.68
2018-06-15T15:29:57.851Z,41.71
2018-06-15T15:32:27.129Z,42.65
2018-06-15T15:34:56.533Z,42.05
2018-06-15T15:37:25.935Z,43.58
2018-06-15T15:39:55.601Z,42.19
2018-06-15T15:42:25.077Z,42.21
2018-06-15T15:44:54.777Z,42.29
2018-06-15T15:47:24.308Z,42.88
2018-06-15T15:49:53.678Z,42.55
2018-06-15T15:52:23.017Z,42.23
2018-06-15T15:54:52.460Z,42.63
2018-06-15T15:57:21.973Z,42.73
2018-06-15T15:59:51.421Z,42.43
2018-06-15T16:02:20.764Z,42.80
2018-06-15T16:04:50.118Z,43.40
2018-06-15T16:07:19.639Z,42.71
2018-06-15T16:09:49.296Z,43.02
2018-06-15T16:12:25.616Z,44.34
2018-06-15T16:14:59.872Z,43.74
2018-06-15T16:17:30.588Z,43.93
2018-06-15T16:20:01.366Z,43.68
2018-06-15T16:22:30.763Z,44.11
2018-06-15T16:25:00.178Z,44.57
2018-06-15T16:27:29.522Z,43.91
2018-06-15T16:29:59.030Z,43.55
2018-06-15T16:32:28.518Z,44.38
2018-06-15T16:34:58.450Z,43.76
2018-06-15T16:37:27.863Z,44.35
2018-06-15T16:39:57.557Z,43.90
2018-06-15T16:42:27.036Z,44.65
2018-06-15T16:44:56.523Z,45.02
2018-06-15T16:47:26.018Z,45.23
2018-06-15T16:49:55.619Z,44.33
2018-06-15T16:52:25.018Z,43.82
2018-06-15T16:54:54.388Z,44.74
2018-06-15T16:57:24.234Z,44.71
2018-06-15T16:59:53.787Z,43.78
2018-06-15T17:02:23.216Z,43.56
2018-06-15T17:04:52.582Z,44.79
2018-06-15T17:07:22.231Z,45.06
2018-06-15T17:09:51.706Z,44.40
2018-06-15T17:12:21.513Z,46.18
2018-06-15T17:14:51.199Z,45.44
2018-06-15T17:17:20.658Z,45.58
2018-06-15T17:19:50.022Z,46.00
2018-06-15T17:22:19.501Z,45.57
2018-06-15T17:24:48.998Z,46.19
2018-06-15T17:27:18.333Z,46.24
2018-06-15T17:29:47.838Z,45.52
2018-06-15T17:32:17.683Z,44.16
2018-06-15T17:34:47.485Z,44.33
2018-06-15T17:37:16.866Z,44.13
2018-06-15T17:39:46.275Z,44.20
2018-06-15T17:42:15.337Z,43.16
2018-06-15T17:44:44.668Z,44.03
2018-06-15T17:47:14.013Z,44.82
2018-06-15T17:49:43.323Z,44.79
2018-06-15T17:52:12.690Z,45.13
2018-06-15T17:54:42.059Z,45.81
2018-06-15T17:57:14.574Z,45.88
2018-06-15T17:59:44.192Z,44.94
2018-06-15T18:02:13.489Z,45.34
2018-06-15T18:04:42.821Z,45.73
2018-06-15T18:07:12.194Z,45.70
2018-06-15T18:09:41.841Z,45.81
2018-06-15T18:12:11.166Z,46.49
2018-06-15T18:14:40.949Z,46.91
2018-06-15T18:17:10.307Z,46.01
2018-06-15T18:19:39.641Z,46.69
2018-06-15T18:22:09.079Z,46.96
2018-06-15T18:24:38.455Z,47.68
2018-06-15T18:27:08.062Z,48.07
2018-06-15T18:29:37.445Z,48.83
2018-06-15T18:32:07.219Z,48.96
2018-06-15T18:34:36.628Z,49.73
2018-06-15T18:37:06.053Z,50.44
2018-06-15T18:39:35.829Z,50.35
2018-06-15T18:42:05.185Z,49.83
2018-06-15T18:44:34.525Z,49.91
2018-06-15T18:47:03.957Z,51.04
2018-06-15T18:49:33.305Z,50.42
2018-06-15T18:52:03.196Z,50.46
2018-06-15T18:54:32.621Z,51.84
2018-06-15T18:57:01.932Z,51.52
2018-06-15T18:59:31.344Z,52.16
2018-06-15T19:02:00.702Z,52.13
2018-06-15T19:04:30.385Z,51.78
2018-06-15T19:06:59.683Z,52.49
2018-06-15T19:09:29.100Z,52.61
2018-06-15T19:11:58.614Z,53.42
2018-06-15T19:14:28.052Z,52.61
2018-06-15T19:16:57.410Z,52.80
2018-06-15T19:19:26.760Z,53.26
2018-06-15T19:21:56.248Z,53.78
2018-06-15T19:24:25.673Z,53.62
2018-06-15T19:26:55.072Z,53.95
2018-06-15T19:29:24.571Z,53.45
2018-06-15T19:31:54.177Z,53.95
2018-06-15T19:34:23.774Z,53.14
2018-06-15T19:36:53.289Z,53.78
2018-06-15T19:39:22.719Z,53.73
2018-06-15T19:41:52.576Z,53.86
2018-06-15T19:44:21.974Z,53.94
2018-06-15T19:46:51.446Z,53.57
2018-06-15T19:49:21.426Z,53.92
2018-06-15T19:51:51.055Z,54.23
2018-06-15T19:54:20.496Z,54.35
2018-06-15T19:56:49.850Z,54.36
2018-06-15T19:59:19.294Z,54.59
2018-06-15T20:01:48.855Z,55.17
2018-06-15T20:04:18.481Z,54.97
2018-06-15T20:06:47.867Z,55.59
2018-06-15T20:09:17.258Z,55.60
2018-06-15T20:11:46.650Z,55.22
2018-06-15T20:14:16.050Z,55.09
2018-06-15T20:16:45.513Z,55.26
2018-06-15T20:19:14.909Z,55.37
2018-06-15T20:21:44.263Z,55.70
2018-06-15T20:24:13.583Z,55.18
2018-06-15T20:26:42.988Z,56.09
2018-06-15T20:29:12.357Z,55.25
2018-06-15T20:31:41.704Z,55.12
2018-06-15T20:34:11.090Z,55.55
2018-06-15T20:36:40.441Z,55.54
2018-06-15T20:39:10.611Z,55.38
2018-06-15T20:41:39.973Z,55.44
2018-06-15T20:44:09.512Z,56.19
2018-06-15T20:46:38.836Z,55.30
2018-06-15T20:49:08.205Z,55.70
2018-06-15T20:51:37.551Z,55.96
2018-06-15T20:54:06.903Z,56.07
2018-06-15T20:56:36.710Z,55.77
2018-06-15T20:59:06.056Z,56.04
2018-06-15T21:01:35.541Z,56.83
2018-06-15T21:04:05.131Z,57.67
2018-06-15T21:06:34.530Z,57.33
2018-06-15T21:09:05.189Z,57.38
2018-06-15T21:11:34.516Z,57.21
2018-06-15T21:14:04.105Z,58.19
2018-06-15T21:16:33.782Z,57.50
2018-06-15T21:19:03.133Z,57.72
2018-06-15T21:21:32.550Z,58.69
2018-06-15T21:24:01.914Z,58.84
2018-06-15T21:26:31.280Z,58.45
2018-06-15T21:29:00.726Z,57.99
2018-06-15T21:31:30.102Z,57.98
2018-06-15T21:33:59.529Z,58.34
2018-06-15T21:36:29.112Z,58.37
2018-06-15T21:38:58.475Z,58.59
2018-06-15T21:41:28.085Z,58.84
2018-06-15T21:43:57.492Z,59.42
2018-06-15T21:46:26.853Z,59.11
2018-06-15T21:48:56.423Z,59.10
2018-06-15T21:51:25.910Z,59.78
2018-06-15T21:53:55.364Z,59.50
2018-06-15T21:56:25.534Z,59.78
2018-06-15T21:58:54.987Z,60.48
2018-06-15T22:01:28.770Z,60.16
2018-06-15T22:03:58.483Z,60.73
2018-06-15T22:06:27.881Z,61.53
2018-06-15T22:08:57.251Z,61.59
2018-06-15T22:11:27.057Z,61.77
2018-06-15T22:13:56.399Z,61.98
2018-06-15T22:16:25.570Z,61.54
2018-06-15T22:18:55.058Z,61.00
2018-06-15T22:21:24.468Z,61.89
2018-06-15T22:23:53.890Z,62.28
2018-06-15T22:26:23.641Z,62.27
2018-06-15T22:28:53.120Z,62.69
2018-06-15T22:31:22.530Z,62.70
2018-06-15T22:33:52.310Z,62.87
2018-06-15T22:36:21.705Z,62.90
2018-06-15T22:38:51.018Z,62.83
2018-06-15T22:41:20.376Z,63.30
2018-06-15T22:43:49.806Z,63.40
2018-06-15T22:46:19.112Z,63.58
2018-06-15T22:48:48.543Z,63.74
2018-06-15T22:51:17.821Z,63.76
2018-06-15T22:53:47.221Z,63.69
2018-06-15T22:56:16.572Z,64.25
2018-06-15T22:58:45.916Z,63.79
2018-06-15T23:01:15.422Z,64.64
2018-06-15T23:03:44.781Z,64.29
2018-06-15T23:06:14.132Z,64.79
2018-06-15T23:08:43.459Z,65.31
2018-06-15T23:11:12.797Z,65.15
2018-06-15T23:13:42.109Z,65.12
2018-06-15T23:16:11.417Z,65.52
2018-06-15T23:18:40.738Z,64.51
2018-06-15T23:21:10.042Z,64.93
2018-06-15T23:23:39.365Z,65.69
2018-06-15T23:26:08.705Z,65.76
2018-06-15T23:28:38.157Z,65.16
2018-06-15T23:31:07.561Z,65.64
2018-06-15T23:33:36.965Z,65.37
2018-06-15T23:36:06.286Z,65.62
2018-06-15T23:38:35.589Z,65.26
2018-06-15T23:41:04.929Z,65.68
2018-06-15T23:43:34.249Z,65.28
2018-06-15T23:46:03.576Z,65.84
2018-06-15T23:48:32.970Z,66.04
2018-06-15T23:51:02.322Z,65.35
2018-06-15T23:53:31.642Z,66.06
2018-06-15T23:56:00.953Z,65.66
2018-06-15T23:58:30.288Z,65.49
